Time;durP1;ratioP1;P1;durP2;ratioP2;P2;SDS_P1;SDS_P2;PMS_P1;PMS_P2;Temp;Humidity;BMP_temperature;BMP_pressure;BME280_temperature;BME280_humidity;BME280_pressure;Samples;Min_cycle;Max_cycle;Signal;HPM_P1;HPM_P2
2022/01/06 00:01:16;;;;;;;9.00;3.20;;;3.50;99.90;;;;;;4974949;28;20573;-76
2022/01/06 00:03:43;;;;;;;7.13;3.00;;;3.40;99.90;;;;;;4975204;28;20218;-76
2022/01/06 00:06:09;;;;;;;9.63;2.50;;;3.50;99.90;;;;;;4975198;28;20440;-77
2022/01/06 00:08:36;;;;;;;3.50;2.30;;;3.50;99.90;;;;;;4974001;28;20451;-77
2022/01/06 00:11:05;;;;;;;7.00;2.80;;;3.60;99.90;;;;;;4975494;28;20969;-76
2022/01/06 00:16:30;;;;;;;6.40;2.97;;;3.50;99.90;;;;;;4963425;28;20809;-77
2022/01/06 00:24:23;;;;;;;17.73;2.27;;;3.50;99.90;;;;;;4954489;29;20387;-77
2022/01/06 00:26:50;;;;;;;4.37;2.30;;;3.50;99.90;;;;;;4954555;28;20866;-77
2022/01/06 00:29:16;;;;;;;3.23;2.27;;;3.50;99.90;;;;;;4955756;28;20424;-77
2022/01/06 00:31:41;;;;;;;6.50;2.57;;;3.50;99.90;;;;;;4954977;28;20835;-76
2022/01/06 00:34:10;;;;;;;8.07;2.30;;;3.50;99.90;;;;;;4956083;28;20432;-77
2022/01/06 00:36:38;;;;;;;6.27;2.80;;;3.50;99.90;;;;;;4955136;29;20206;-76
2022/01/06 00:39:04;;;;;;;2.87;2.63;;;3.50;99.90;;;;;;4956629;28;20391;-76
2022/01/06 00:41:31;;;;;;;8.50;2.97;;;3.50;99.90;;;;;;4956093;28;20432;-77
2022/01/06 00:43:57;;;;;;;2.67;1.90;;;3.50;99.90;;;;;;4959503;28;20413;-76
2022/01/06 00:46:22;;;;;;;7.03;2.80;;;3.50;99.90;;;;;;4959832;28;20465;-76
2022/01/06 00:48:48;;;;;;;10.50;2.97;;;3.40;99.90;;;;;;4959155;28;20178;-76
2022/01/06 00:51:13;;;;;;;3.80;2.90;;;3.40;99.90;;;;;;4959491;28;20208;-76
2022/01/06 00:53:39;;;;;;;2.17;1.93;;;3.40;99.90;;;;;;4957107;29;20179;-76
2022/01/06 00:56:04;;;;;;;3.27;1.90;;;3.40;99.90;;;;;;4955771;28;20198;-76
2022/01/06 00:58:30;;;;;;;4.87;2.50;;;3.30;99.90;;;;;;4955507;29;20203;-76
2022/01/06 05:31:00;;;;;;;5.50;2.77;;;3.10;99.90;;;;;;5830860;23;20547;-72
2022/01/06 05:33:26;;;;;;;4.30;3.20;;;3.10;99.90;;;;;;4970176;28;20803;-72
2022/01/06 05:35:52;;;;;;;14.03;3.57;;;3.10;99.90;;;;;;4971284;28;20421;-72
2022/01/06 05:38:18;;;;;;;5.50;2.93;;;3.20;99.90;;;;;;4973352;28;20444;-72
2022/01/06 05:40:43;;;;;;;9.00;3.40;;;3.20;99.90;;;;;;4971431;28;20213;-72
2022/01/06 05:43:09;;;;;;;7.20;3.20;;;3.20;99.90;;;;;;4973203;28;20189;-72
2022/01/06 05:45:35;;;;;;;2.97;2.37;;;3.20;99.90;;;;;;4972217;28;20243;-72
2022/01/06 05:48:00;;;;;;;8.73;3.03;;;3.20;99.90;;;;;;4954301;28;20709;-73
2022/01/06 05:50:27;;;;;;;3.90;3.03;;;3.20;99.90;;;;;;4954232;28;20213;-72
2022/01/06 05:52:54;;;;;;;6.10;3.43;;;3.20;99.90;;;;;;4954147;28;20229;-72
2022/01/06 05:55:21;;;;;;;4.00;2.47;;;3.30;99.90;;;;;;4954020;28;20434;-72
2022/01/06 05:57:47;;;;;;;4.70;2.20;;;3.30;99.90;;;;;;4953910;28;20551;-72
2022/01/06 06:00:13;;;;;;;7.10;2.40;;;3.40;99.90;;;;;;4953950;28;20492;-72
2022/01/06 06:02:38;;;;;;;7.13;3.03;;;3.30;99.90;;;;;;4954184;28;20442;-72
2022/01/06 06:05:04;;;;;;;4.90;2.70;;;3.30;99.90;;;;;;4953808;28;20932;-73
2022/01/06 06:07:30;;;;;;;4.27;3.30;;;3.30;99.90;;;;;;4954118;28;20597;-73
2022/01/06 06:09:56;;;;;;;5.17;2.53;;;3.30;99.90;;;;;;4953846;28;20448;-73
2022/01/06 06:12:21;;;;;;;5.10;3.30;;;3.30;99.90;;;;;;4954043;28;20206;-72
2022/01/06 06:14:47;;;;;;;4.67;3.20;;;3.30;99.90;;;;;;4953651;28;20273;-72
2022/01/06 06:17:13;;;;;;;6.80;3.13;;;3.30;99.90;;;;;;4953786;28;20300;-73
2022/01/06 06:19:38;;;;;;;8.43;2.93;;;3.40;99.90;;;;;;4953805;28;20698;-73
2022/01/06 06:22:04;;;;;;;7.23;3.27;;;3.30;99.90;;;;;;4953682;28;20244;-73
2022/01/06 06:24:30;;;;;;;6.73;2.80;;;3.30;99.90;;;;;;4952501;28;20190;-72
2022/01/06 06:26:56;;;;;;;5.53;3.03;;;3.30;99.90;;;;;;4953846;28;20182;-72
2022/01/06 06:29:21;;;;;;;7.67;3.23;;;3.30;99.90;;;;;;4953551;28;20427;-73
2022/01/06 06:31:47;;;;;;;6.20;2.90;;;3.30;99.90;;;;;;4953606;28;20259;-73
2022/01/06 06:34:13;;;;;;;12.33;3.90;;;3.30;99.90;;;;;;4953605;28;20189;-72
2022/01/06 06:36:39;;;;;;;13.40;3.60;;;3.40;99.90;;;;;;4953623;28;20500;-72
2022/01/06 06:39:05;;;;;;;9.07;2.97;;;3.30;99.90;;;;;;4953436;28;20646;-72
2022/01/06 06:41:31;;;;;;;6.80;2.87;;;3.30;99.90;;;;;;4953567;28;20193;-72
2022/01/06 06:43:57;;;;;;;7.90;3.87;;;3.30;99.90;;;;;;4953857;28;20439;-72
2022/01/06 06:46:22;;;;;;;10.33;4.17;;;3.30;99.90;;;;;;4953546;28;20181;-72
2022/01/06 06:48:48;;;;;;;9.50;3.23;;;3.30;99.90;;;;;;4953795;28;20177;-73
2022/01/06 06:51:14;;;;;;;8.60;2.57;;;3.30;99.90;;;;;;4953634;28;20449;-72
2022/01/06 06:53:41;;;;;;;4.23;2.80;;;3.30;99.90;;;;;;4953592;28;20545;-73
2022/01/06 06:56:07;;;;;;;8.33;3.57;;;3.30;99.90;;;;;;4953539;28;20460;-73
2022/01/06 06:58:32;;;;;;;9.27;3.97;;;3.30;99.90;;;;;;4953503;28;20462;-73
2022/01/06 07:00:58;;;;;;;7.00;3.07;;;3.30;99.90;;;;;;4953860;28;20415;-73
2022/01/06 07:03:23;;;;;;;3.33;2.40;;;3.30;99.90;;;;;;4953976;28;20174;-73
2022/01/06 07:05:49;;;;;;;11.03;3.87;;;3.40;99.90;;;;;;4954318;28;20169;-73
2022/01/06 07:08:15;;;;;;;6.17;3.30;;;3.40;99.90;;;;;;4954838;28;20208;-72
2022/01/06 07:10:41;;;;;;;6.93;2.83;;;3.40;99.90;;;;;;4957343;28;20440;-72
2022/01/06 07:13:07;;;;;;;7.57;3.37;;;3.50;99.90;;;;;;4963172;28;20185;-71
2022/01/06 07:15:34;;;;;;;7.10;3.03;;;3.40;99.90;;;;;;4980140;23;20216;-74
2022/01/06 07:17:59;;;;;;;11.63;3.70;;;3.50;99.90;;;;;;4973210;28;20284;-73
2022/01/06 07:20:25;;;;;;;2.70;2.50;;;3.50;99.90;;;;;;4974868;28;20530;-73
2022/01/06 07:22:50;;;;;;;6.83;2.97;;;3.60;99.90;;;;;;4954855;29;20186;-73
2022/01/06 07:25:16;;;;;;;6.43;2.70;;;3.60;99.90;;;;;;4955269;29;20185;-74
2022/01/06 07:27:42;;;;;;;6.93;3.90;;;3.60;99.90;;;;;;4955267;29;20189;-73
2022/01/06 07:30:08;;;;;;;4.80;2.80;;;3.60;99.90;;;;;;4954793;28;20186;-73
2022/01/06 07:32:41;;;;;;;8.03;3.37;;;3.70;99.90;;;;;;4954928;28;20490;-73
2022/01/06 07:35:07;;;;;;;8.63;3.90;;;3.70;99.90;;;;;;4954678;28;20393;-73
2022/01/06 07:37:33;;;;;;;3.17;2.80;;;3.70;99.90;;;;;;4955305;28;20432;-73
2022/01/06 07:39:58;;;;;;;8.77;3.63;;;3.70;99.90;;;;;;4955290;29;20484;-74
2022/01/06 07:42:24;;;;;;;5.03;3.00;;;3.70;99.90;;;;;;4954841;28;20193;-74
2022/01/06 07:44:49;;;;;;;6.10;2.30;;;3.60;99.90;;;;;;4952652;29;20376;-73
2022/01/06 07:47:15;;;;;;;14.63;2.97;;;3.60;99.90;;;;;;4954753;29;20178;-73
2022/01/06 07:49:41;;;;;;;5.77;3.23;;;3.60;99.90;;;;;;4954812;29;20281;-73
2022/01/06 07:52:07;;;;;;;6.00;3.13;;;3.60;99.90;;;;;;4953818;28;20201;-73
2022/01/06 07:54:32;;;;;;;11.83;2.77;;;3.60;99.90;;;;;;4953924;29;20474;-73
2022/01/06 07:56:58;;;;;;;6.10;3.60;;;3.50;99.90;;;;;;4953781;29;20577;-73
2022/01/06 07:59:23;;;;;;;10.07;3.67;;;3.50;99.90;;;;;;4954567;29;20706;-73
2022/01/06 08:01:49;;;;;;;8.03;3.57;;;3.50;99.90;;;;;;4954443;29;20201;-70
2022/01/06 08:04:14;;;;;;;7.37;3.83;;;3.50;99.90;;;;;;4953430;29;20220;-73
2022/01/06 08:06:40;;;;;;;4.70;2.90;;;3.50;99.90;;;;;;4954596;29;20637;-72
2022/01/06 08:09:05;;;;;;;8.27;3.30;;;3.50;99.90;;;;;;4954144;29;20268;-73
2022/01/06 08:11:31;;;;;;;5.87;3.50;;;3.50;99.90;;;;;;4950572;29;20289;-72
2022/01/06 08:13:57;;;;;;;8.50;4.53;;;3.50;99.90;;;;;;4941365;29;20213;-72
2022/01/06 08:16:23;;;;;;;6.23;3.00;;;3.40;99.90;;;;;;4954288;28;20737;-73
2022/01/06 08:18:48;;;;;;;10.30;4.13;;;3.40;99.90;;;;;;4954412;29;20505;-70
2022/01/06 08:21:14;;;;;;;11.27;4.30;;;3.40;99.90;;;;;;4953734;28;20203;-73
2022/01/06 08:23:40;;;;;;;13.57;4.90;;;3.50;99.90;;;;;;4953269;29;20185;-72
2022/01/06 08:26:06;;;;;;;5.57;3.53;;;3.60;99.90;;;;;;4954280;29;20185;-73
2022/01/06 08:28:31;;;;;;;5.87;3.63;;;3.60;99.90;;;;;;4939244;28;20299;-72
2022/01/06 08:30:57;;;;;;;13.13;4.80;;;3.60;99.90;;;;;;4953020;28;20801;-72
2022/01/06 08:33:23;;;;;;;5.20;4.00;;;3.70;99.90;;;;;;4952114;28;20193;-74
2022/01/06 08:35:48;;;;;;;5.17;3.70;;;3.70;99.90;;;;;;4953609;29;20174;-72
2022/01/06 08:38:14;;;;;;;7.10;4.17;;;3.80;99.90;;;;;;4953795;29;20289;-68
2022/01/06 08:40:40;;;;;;;10.00;4.70;;;3.80;99.90;;;;;;4953840;28;20181;-71
2022/01/06 08:43:05;;;;;;;12.47;4.57;;;3.90;99.90;;;;;;4953384;29;20314;-71
2022/01/06 08:45:32;;;;;;;14.83;4.23;;;3.90;99.90;;;;;;4953346;29;20180;-71
2022/01/06 08:47:58;;;;;;;8.80;4.73;;;3.90;99.90;;;;;;4953950;28;20179;-72
2022/01/06 08:50:24;;;;;;;13.83;4.80;;;3.90;99.90;;;;;;4953563;28;20425;-71
2022/01/06 08:52:51;;;;;;;10.40;4.30;;;4.00;99.90;;;;;;4952100;28;20213;-72
2022/01/06 08:55:16;;;;;;;14.43;6.33;;;4.00;99.90;;;;;;4953083;28;20668;-71
2022/01/06 08:57:42;;;;;;;10.33;5.80;;;4.00;99.90;;;;;;4953102;28;20436;-72
2022/01/06 09:00:10;;;;;;;6.50;4.23;;;4.00;99.90;;;;;;4953331;29;20396;-72
2022/01/06 09:02:36;;;;;;;7.70;4.23;;;4.00;99.90;;;;;;4951843;28;20256;-71
2022/01/06 09:05:05;;;;;;;9.60;5.20;;;4.00;99.90;;;;;;4953035;29;20912;-71
2022/01/06 09:07:34;;;;;;;7.20;4.40;;;4.10;99.90;;;;;;4951687;29;20249;-71
2022/01/06 09:09:59;;;;;;;9.27;4.20;;;4.10;99.90;;;;;;4952171;29;20424;-72
2022/01/06 09:12:25;;;;;;;6.47;4.23;;;4.20;99.90;;;;;;4952870;28;21014;-71
2022/01/06 09:14:51;;;;;;;10.03;4.20;;;4.30;99.90;;;;;;4952624;29;20181;-71
2022/01/06 09:17:16;;;;;;;10.43;4.13;;;4.40;99.90;;;;;;4952597;29;20683;-71
2022/01/06 09:19:42;;;;;;;14.40;5.90;;;4.70;99.90;;;;;;4953176;28;20192;-72
2022/01/06 09:22:07;;;;;;;14.53;3.80;;;5.30;99.90;;;;;;4953046;28;20204;-72
2022/01/06 09:24:33;;;;;;;5.57;3.50;;;6.10;99.90;;;;;;4952422;29;20211;-71
2022/01/06 09:26:59;;;;;;;4.67;3.43;;;6.60;99.90;;;;;;4949782;29;20177;-73
2022/01/06 09:29:24;;;;;;;6.83;3.17;;;7.00;99.90;;;;;;4948145;28;20448;-72
2022/01/06 09:31:50;;;;;;;7.97;4.20;;;7.50;99.90;;;;;;4949216;28;20290;-71
2022/01/06 09:34:16;;;;;;;5.73;2.83;;;7.70;99.90;;;;;;4949087;29;20677;-73
2022/01/06 09:36:42;;;;;;;10.60;3.80;;;7.30;99.90;;;;;;4950656;29;20922;-71
2022/01/06 09:39:10;;;;;;;9.27;4.07;;;7.20;99.90;;;;;;4950635;28;20221;-71
2022/01/06 09:41:36;;;;;;;10.70;3.20;;;7.30;99.90;;;;;;4945773;28;20853;-72
2022/01/06 09:44:03;;;;;;;5.50;2.80;;;7.20;99.90;;;;;;4948062;28;20478;-72
2022/01/06 09:46:30;;;;;;;9.07;3.30;;;7.20;99.90;;;;;;4948648;29;20465;-73
2022/01/06 09:48:59;;;;;;;4.77;2.53;;;6.80;99.90;;;;;;4949853;28;20456;-73
2022/01/06 09:51:26;;;;;;;12.00;3.40;;;6.90;99.90;;;;;;4948925;29;20543;-73
2022/01/06 09:53:57;;;;;;;10.70;3.10;;;7.10;99.90;;;;;;4948970;28;20452;-71
2022/01/06 09:56:24;;;;;;;6.37;2.67;;;7.10;99.90;;;;;;4949629;29;20663;-71
2022/01/06 09:58:50;;;;;;;10.03;3.80;;;7.00;99.90;;;;;;4948989;28;20487;-71
2022/01/06 10:01:15;;;;;;;6.20;2.93;;;6.70;99.90;;;;;;4949117;28;20448;-71
2022/01/06 10:03:45;;;;;;;3.50;2.90;;;6.40;99.90;;;;;;4948880;28;20220;-71
2022/01/06 10:06:26;;;;;;;6.60;3.47;;;6.20;99.90;;;;;;4948809;29;20259;-71
2022/01/06 10:08:59;;;;;;;8.90;3.10;;;6.10;99.90;;;;;;4949310;28;20825;-70
2022/01/06 10:11:33;;;;;;;7.27;3.13;;;6.00;99.90;;;;;;4948350;28;20448;-71
2022/01/06 10:14:17;;;;;;;12.63;3.97;;;5.90;99.90;;;;;;4948824;29;20447;-69
2022/01/06 10:16:46;;;;;;;9.40;3.77;;;5.80;99.90;;;;;;4948836;29;20474;-72
2022/01/06 10:19:12;;;;;;;8.93;2.80;;;5.90;99.90;;;;;;4949796;28;20440;-71
2022/01/06 10:21:44;;;;;;;8.90;2.80;;;6.20;99.90;;;;;;4948782;28;20446;-73
2022/01/06 10:24:12;;;;;;;3.57;2.57;;;6.40;99.90;;;;;;4948744;29;20431;-72
2022/01/06 10:26:51;;;;;;;8.00;3.20;;;6.40;99.90;;;;;;4944702;29;20467;-72
2022/01/06 10:29:17;;;;;;;7.60;3.63;;;6.30;99.90;;;;;;4948496;29;20934;-72
2022/01/06 10:31:42;;;;;;;10.30;3.33;;;6.20;99.90;;;;;;4948258;28;20447;-72
2022/01/06 10:34:08;;;;;;;6.20;3.20;;;6.10;99.90;;;;;;4948493;29;20505;-73
2022/01/06 10:36:36;;;;;;;9.60;2.97;;;6.20;99.90;;;;;;4946430;28;20232;-71
2022/01/06 10:39:05;;;;;;;7.07;2.70;;;6.20;99.90;;;;;;4947063;29;20971;-72
2022/01/06 10:41:31;;;;;;;6.93;2.37;;;6.20;99.90;;;;;;4948923;28;20432;-71
2022/01/06 10:43:59;;;;;;;7.03;2.60;;;6.10;99.90;;;;;;4948075;28;21010;-72
2022/01/06 10:46:39;;;;;;;9.47;3.20;;;6.10;99.90;;;;;;4953126;29;20288;-71
2022/01/06 10:49:14;;;;;;;12.33;3.00;;;6.20;99.90;;;;;;4959215;28;20435;-72
2022/01/06 10:51:48;;;;;;;16.13;3.13;;;6.30;99.90;;;;;;4952519;28;20504;-70
2022/01/06 10:54:15;;;;;;;8.30;2.63;;;6.30;99.90;;;;;;4951918;28;20505;-71
2022/01/06 10:56:41;;;;;;;6.10;2.70;;;6.10;99.90;;;;;;4952640;29;20407;-72
2022/01/06 10:59:07;;;;;;;4.73;2.23;;;6.20;99.90;;;;;;4952982;28;20537;-72
2022/01/06 11:01:34;;;;;;;3.50;2.47;;;6.20;99.90;;;;;;4952170;28;20552;-71
2022/01/06 11:04:00;;;;;;;4.67;2.30;;;6.40;99.90;;;;;;4951411;29;20196;-71
2022/01/06 11:06:26;;;;;;;6.93;2.90;;;6.40;99.90;;;;;;4951061;28;20424;-71
2022/01/06 11:08:52;;;;;;;6.20;2.33;;;6.40;99.90;;;;;;4951496;28;20208;-72
2022/01/06 11:11:31;;;;;;;6.70;2.07;;;6.40;99.90;;;;;;4950901;28;20440;-71
2022/01/06 11:13:57;;;;;;;15.27;2.47;;;6.30;99.90;;;;;;4950984;29;20445;-72
2022/01/06 11:16:22;;;;;;;4.60;3.00;;;6.40;99.90;;;;;;4947846;29;21023;-72
2022/01/06 11:18:59;;;;;;;7.60;3.03;;;6.60;99.90;;;;;;4952148;29;20217;-72
2022/01/06 11:21:46;;;;;;;5.43;1.77;;;6.30;99.90;;;;;;4953083;28;20288;-74
2022/01/06 11:24:14;;;;;;;11.67;1.90;;;6.20;99.90;;;;;;4951933;29;20421;-72
2022/01/06 11:26:41;;;;;;;6.63;2.30;;;6.10;99.90;;;;;;4952229;29;20525;-71
2022/01/06 11:29:07;;;;;;;9.07;2.43;;;5.90;99.90;;;;;;4952511;28;20405;-72
2022/01/06 11:31:42;;;;;;;8.90;2.60;;;5.80;99.90;;;;;;4952389;28;20517;-72
2022/01/06 11:34:20;;;;;;;9.63;2.90;;;5.80;99.90;;;;;;4951003;29;20431;-73
2022/01/06 11:36:49;;;;;;;4.70;1.77;;;6.00;99.90;;;;;;4951468;29;21105;-72
2022/01/06 11:39:28;;;;;;;9.40;2.70;;;6.00;99.90;;;;;;4952539;29;20438;-74
2022/01/06 11:41:55;;;;;;;6.00;1.93;;;6.00;99.90;;;;;;4949720;29;20474;-74
2022/01/06 11:44:24;;;;;;;7.50;2.23;;;5.80;99.90;;;;;;4949527;28;20839;-72
2022/01/06 11:46:54;;;;;;;7.40;2.10;;;5.60;99.90;;;;;;4950011;29;20454;-74
2022/01/06 11:49:39;;;;;;;3.60;2.03;;;5.50;99.90;;;;;;4950885;29;20430;-72
2022/01/06 11:52:07;;;;;;;6.57;2.23;;;5.20;99.90;;;;;;4949772;29;20469;-72
2022/01/06 11:54:33;;;;;;;9.10;2.33;;;5.00;99.90;;;;;;4949830;29;20433;-71
2022/01/06 11:56:59;;;;;;;10.03;2.20;;;5.10;99.90;;;;;;4941143;29;20944;-69
2022/01/06 11:59:32;;;;;;;9.47;2.57;;;5.10;99.90;;;;;;4934005;29;20561;-72
2022/01/06 12:01:58;;;;;;;5.30;2.50;;;5.30;99.90;;;;;;4941695;29;20582;-71
2022/01/06 12:04:25;;;;;;;3.77;2.10;;;5.50;99.90;;;;;;4934278;29;20398;-71
2022/01/06 12:07:06;;;;;;;9.20;2.30;;;5.60;99.90;;;;;;4935529;29;20501;-73
2022/01/06 12:09:31;;;;;;;4.90;2.47;;;5.50;99.90;;;;;;4935177;29;20389;-72
2022/01/06 12:12:05;;;;;;;11.40;2.30;;;5.50;99.90;;;;;;4935187;29;20906;-72
2022/01/06 12:14:31;;;;;;;6.50;1.90;;;5.40;99.90;;;;;;4951459;29;20179;-72
2022/01/06 12:17:08;;;;;;;6.97;1.70;;;5.40;99.90;;;;;;4952984;28;20448;-72
2022/01/06 12:19:35;;;;;;;8.70;2.27;;;5.40;99.90;;;;;;4952544;29;20504;-73
2022/01/06 12:22:01;;;;;;;17.73;2.70;;;5.30;99.90;;;;;;4954171;28;20424;-72
2022/01/06 12:24:27;;;;;;;6.53;1.73;;;5.30;99.90;;;;;;4952186;29;20449;-72
2022/01/06 12:26:54;;;;;;;12.53;2.67;;;5.40;99.90;;;;;;4954293;28;20183;-70
2022/01/06 12:29:22;;;;;;;8.23;2.90;;;5.40;99.90;;;;;;4954240;28;20424;-70
2022/01/06 12:31:49;;;;;;;7.03;2.00;;;5.40;99.90;;;;;;4954233;28;20430;-72
2022/01/06 12:34:16;;;;;;;8.40;2.30;;;5.40;99.90;;;;;;4953632;29;20847;-72
2022/01/06 12:36:45;;;;;;;10.23;2.70;;;5.40;99.90;;;;;;4954236;28;20421;-72
2022/01/06 12:39:17;;;;;;;13.87;2.57;;;5.60;99.90;;;;;;4953623;28;20516;-72
2022/01/06 12:41:43;;;;;;;8.57;3.10;;;5.80;99.90;;;;;;4953614;28;20631;-72
2022/01/06 12:44:09;;;;;;;6.83;1.80;;;5.90;99.90;;;;;;4953004;29;20837;-71
2022/01/06 12:46:41;;;;;;;7.90;2.37;;;5.90;99.90;;;;;;4953790;28;20856;-71
2022/01/06 12:49:08;;;;;;;8.73;1.87;;;5.90;99.90;;;;;;4954058;28;20420;-72
2022/01/06 12:51:36;;;;;;;10.30;2.63;;;6.00;99.90;;;;;;4952964;28;20442;-72
2022/01/06 12:54:11;;;;;;;7.50;2.50;;;6.10;99.90;;;;;;4953465;29;20448;-71
2022/01/06 12:56:46;;;;;;;6.13;2.13;;;6.10;99.90;;;;;;4952235;29;20428;-71
2022/01/06 12:59:13;;;;;;;7.33;2.30;;;6.10;99.90;;;;;;4951868;29;20387;-73
2022/01/06 13:01:40;;;;;;;16.13;2.40;;;6.20;99.90;;;;;;4953180;29;20805;-70
2022/01/06 13:04:07;;;;;;;11.73;2.67;;;6.40;99.90;;;;;;4952379;28;20416;-72
2022/01/06 13:06:35;;;;;;;4.53;2.37;;;6.40;99.90;;;;;;4952806;28;20466;-72
2022/01/06 13:09:14;;;;;;;5.70;1.77;;;6.40;99.90;;;;;;4952772;28;20410;-72
2022/01/06 13:11:50;;;;;;;14.30;2.80;;;6.40;99.90;;;;;;4952404;28;20467;-70
2022/01/06 13:14:47;;;;;;;12.90;2.50;;;6.40;99.90;;;;;;4952828;28;20405;-72
2022/01/06 13:17:20;;;;;;;4.77;2.20;;;6.50;99.90;;;;;;4952809;28;20514;-72
2022/01/06 13:20:19;;;;;;;4.13;2.10;;;6.40;99.90;;;;;;4952769;28;20421;-72
2022/01/06 13:25:34;;;;;;;6.30;1.73;;;6.20;99.90;;;;;;4953223;28;20408;-72
2022/01/06 13:28:04;;;;;;;7.07;2.90;;;6.20;99.90;;;;;;4951852;29;20427;-70
2022/01/06 13:30:37;;;;;;;7.90;1.90;;;6.20;99.90;;;;;;4952805;28;20432;-72
2022/01/06 13:33:06;;;;;;;11.27;2.77;;;6.10;99.90;;;;;;4952175;28;20411;-72
2022/01/06 13:35:33;;;;;;;6.73;2.53;;;6.10;99.90;;;;;;4952769;28;20480;-72
2022/01/06 13:37:58;;;;;;;15.77;3.50;;;6.00;99.90;;;;;;4952888;28;21017;-70
2022/01/06 13:40:24;;;;;;;6.30;2.70;;;5.90;99.90;;;;;;4952814;29;20413;-71
2022/01/06 13:42:54;;;;;;;8.50;2.47;;;5.80;99.90;;;;;;4950755;29;20565;-71
2022/01/06 13:45:27;;;;;;;9.13;2.33;;;5.80;99.90;;;;;;4947274;28;20196;-71
2022/01/06 13:48:02;;;;;;;8.00;1.60;;;5.60;99.90;;;;;;4948993;29;20457;-72
2022/01/06 13:53:23;;;;;;;11.07;2.77;;;5.50;99.90;;;;;;4949184;29;20490;-73
2022/01/06 13:55:59;;;;;;;6.50;2.47;;;5.50;99.90;;;;;;4949871;29;20493;-72
2022/01/06 13:58:25;;;;;;;5.40;2.30;;;5.50;99.90;;;;;;4949858;29;20437;-72
2022/01/06 14:00:52;;;;;;;12.70;4.47;;;5.50;99.90;;;;;;4949774;28;20439;-73
2022/01/06 14:03:18;;;;;;;9.43;2.40;;;5.40;99.90;;;;;;4949494;28;20437;-72
2022/01/06 14:05:44;;;;;;;12.60;2.80;;;5.40;99.90;;;;;;4950114;28;20953;-72
2022/01/06 14:08:10;;;;;;;9.20;2.90;;;5.50;99.90;;;;;;4950302;29;20442;-76
2022/01/06 14:10:36;;;;;;;10.10;2.50;;;5.70;99.90;;;;;;4949674;29;20673;-73
2022/01/06 14:13:01;;;;;;;9.10;2.57;;;5.80;99.90;;;;;;4950613;28;20446;-73
2022/01/06 14:15:27;;;;;;;14.63;2.73;;;5.90;99.90;;;;;;4950409;28;20413;-73
2022/01/06 14:17:52;;;;;;;9.80;2.53;;;5.90;99.90;;;;;;4950748;28;20211;-73
2022/01/06 14:20:18;;;;;;;5.70;1.80;;;5.80;99.90;;;;;;4951785;29;20608;-72
2022/01/06 14:22:43;;;;;;;3.70;2.10;;;5.70;99.90;;;;;;4951382;28;20199;-69
2022/01/06 14:25:09;;;;;;;4.20;1.60;;;5.60;99.90;;;;;;4952346;29;20264;-71
2022/01/06 14:27:35;;;;;;;13.80;3.33;;;5.60;99.90;;;;;;4952175;28;20230;-72
2022/01/06 14:30:01;;;;;;;4.57;2.30;;;5.50;99.90;;;;;;4952154;29;20905;-72
2022/01/06 14:32:26;;;;;;;8.67;1.90;;;5.60;99.90;;;;;;4950482;28;20195;-71
2022/01/06 14:34:52;;;;;;;10.70;3.00;;;5.70;99.90;;;;;;4950560;29;20483;-72
2022/01/06 14:37:18;;;;;;;14.23;2.50;;;5.70;99.90;;;;;;4952419;28;20768;-73
2022/01/06 14:39:43;;;;;;;7.00;1.90;;;5.70;99.90;;;;;;4951636;29;20179;-73
2022/01/06 14:42:10;;;;;;;6.23;2.30;;;5.70;99.90;;;;;;4951852;28;20410;-70
2022/01/06 14:44:36;;;;;;;7.13;2.30;;;5.70;99.90;;;;;;4949176;29;20195;-73
2022/01/06 14:47:01;;;;;;;7.97;2.30;;;5.80;99.90;;;;;;4951681;29;20432;-73
2022/01/06 14:49:27;;;;;;;4.20;2.07;;;5.70;99.90;;;;;;4949796;28;20209;-75
2022/01/06 14:51:55;;;;;;;9.27;2.90;;;5.70;99.90;;;;;;4949595;28;20212;-74
2022/01/06 14:54:22;;;;;;;5.00;2.27;;;5.70;99.90;;;;;;4948983;29;20202;-74
2022/01/06 14:56:48;;;;;;;6.67;2.50;;;5.70;99.90;;;;;;4948828;29;20466;-74
2022/01/06 14:59:13;;;;;;;6.00;2.97;;;5.80;99.90;;;;;;4949852;29;20444;-75
2022/01/06 15:01:39;;;;;;;11.13;2.30;;;5.70;99.90;;;;;;4949510;28;20250;-74
2022/01/06 15:04:04;;;;;;;14.63;3.10;;;5.60;99.90;;;;;;4949411;29;20269;-74
2022/01/06 15:06:30;;;;;;;7.90;2.53;;;5.60;99.90;;;;;;4950092;29;20235;-76
2022/01/06 15:08:55;;;;;;;11.50;2.47;;;5.60;99.90;;;;;;4947718;29;20769;-75
2022/01/06 15:11:21;;;;;;;11.40;3.33;;;5.60;99.90;;;;;;4949812;29;20914;-70
2022/01/06 15:13:46;;;;;;;7.73;3.70;;;5.50;99.90;;;;;;4950095;29;20268;-76
2022/01/06 15:16:12;;;;;;;8.50;2.53;;;5.50;99.90;;;;;;4949395;29;20989;-75
2022/01/06 15:18:37;;;;;;;3.43;2.60;;;5.50;99.90;;;;;;4950608;29;20216;-74
2022/01/06 15:21:03;;;;;;;4.70;2.50;;;5.50;99.90;;;;;;4949223;29;20194;-74
2022/01/06 15:23:30;;;;;;;12.98;3.20;;;5.50;99.90;;;;;;4948600;28;20404;-78
2022/01/06 15:25:56;;;;;;;10.27;3.67;;;5.40;99.90;;;;;;4947891;29;20499;-73
2022/01/06 15:28:22;;;;;;;9.73;3.40;;;5.30;99.90;;;;;;4950187;29;20451;-73
2022/01/06 15:30:47;;;;;;;10.00;3.43;;;5.20;99.90;;;;;;4950254;28;20773;-76
2022/01/06 15:33:13;;;;;;;13.43;3.77;;;5.10;99.90;;;;;;4952651;29;20600;-74
2022/01/06 15:35:38;;;;;;;8.23;2.40;;;5.00;99.90;;;;;;4953253;29;20296;-76
2022/01/06 15:38:05;;;;;;;11.13;2.97;;;4.90;99.90;;;;;;4954018;29;20212;-74
2022/01/06 15:40:30;;;;;;;6.40;2.57;;;4.80;99.90;;;;;;4953472;28;20202;-74
2022/01/06 15:42:56;;;;;;;10.33;2.13;;;4.80;99.90;;;;;;4952613;28;20465;-76
2022/01/06 15:45:22;;;;;;;7.20;2.53;;;4.70;99.90;;;;;;4953149;29;20668;-73
2022/01/06 15:47:50;;;;;;;7.60;2.90;;;4.60;99.90;;;;;;4953314;28;20241;-74
2022/01/06 15:50:16;;;;;;;7.83;2.43;;;4.50;99.90;;;;;;4953214;28;20822;-74
2022/01/06 15:52:41;;;;;;;13.87;3.13;;;4.40;99.90;;;;;;4952294;29;20438;-73
2022/01/06 15:55:08;;;;;;;7.30;3.33;;;4.30;99.90;;;;;;4949100;28;20456;-75
2022/01/06 15:57:33;;;;;;;8.83;3.13;;;4.30;99.90;;;;;;4949996;28;20235;-72
2022/01/06 16:00:07;;;;;;;8.30;3.30;;;4.20;99.90;;;;;;4952259;29;20452;-75
2022/01/06 16:05:18;;;;;;;8.67;4.60;;;4.00;99.90;;;;;;4952029;29;20456;-74
2022/01/06 16:07:48;;;;;;;11.63;3.30;;;3.90;99.90;;;;;;4952081;28;20467;-76
2022/01/06 16:10:14;;;;;;;8.00;3.50;;;3.80;99.90;;;;;;4950930;29;20520;-73
2022/01/06 16:12:41;;;;;;;8.17;4.17;;;3.70;99.90;;;;;;4950767;28;20965;-78
2022/01/06 16:15:08;;;;;;;14.00;4.57;;;3.70;99.90;;;;;;4950341;29;20202;-76
2022/01/06 16:17:34;;;;;;;8.53;5.80;;;3.50;99.90;;;;;;4950612;28;20453;-74
2022/01/06 16:20:00;;;;;;;10.80;5.17;;;3.50;99.90;;;;;;4950334;29;20436;-76
2022/01/06 16:22:25;;;;;;;12.70;4.77;;;3.30;99.90;;;;;;4950938;28;20401;-75
2022/01/06 16:24:51;;;;;;;10.30;5.53;;;3.20;99.90;;;;;;4951178;29;20199;-76
2022/01/06 16:27:16;;;;;;;7.30;3.70;;;3.10;99.90;;;;;;4951086;29;20201;-74
2022/01/06 16:29:44;;;;;;;9.83;3.20;;;3.00;99.90;;;;;;4950051;29;20217;-73
2022/01/06 16:32:21;;;;;;;7.33;3.73;;;2.90;99.90;;;;;;4951633;28;20217;-75
2022/01/06 16:34:48;;;;;;;16.00;4.40;;;2.80;99.90;;;;;;4947975;28;20436;-75
2022/01/06 16:37:14;;;;;;;11.50;4.50;;;2.70;99.90;;;;;;4951987;28;20526;-75
2022/01/06 16:39:42;;;;;;;12.97;4.70;;;2.60;99.90;;;;;;4950093;29;20575;-76
2022/01/06 16:42:10;;;;;;;11.70;4.90;;;2.50;99.90;;;;;;4951463;28;20961;-76
2022/01/06 16:44:35;;;;;;;15.87;5.00;;;2.50;99.90;;;;;;4952551;28;20427;-74
2022/01/06 16:47:01;;;;;;;14.17;6.13;;;2.40;99.90;;;;;;4953169;29;20420;-75
2022/01/06 16:49:27;;;;;;;14.57;6.47;;;2.20;99.90;;;;;;4952034;29;20697;-76
2022/01/06 16:51:52;;;;;;;12.53;7.07;;;2.20;99.90;;;;;;4953083;29;20589;-76
2022/01/06 16:54:18;;;;;;;14.90;6.43;;;2.10;99.90;;;;;;4951481;29;20212;-76
2022/01/06 16:56:43;;;;;;;14.50;7.50;;;1.90;99.90;;;;;;4953001;29;20207;-76
2022/01/06 16:59:09;;;;;;;12.93;5.37;;;1.80;99.90;;;;;;4952131;28;20221;-76
2022/01/06 17:01:34;;;;;;;19.57;6.47;;;1.80;99.90;;;;;;4952151;29;20232;-73
2022/01/06 17:04:02;;;;;;;15.90;5.77;;;1.70;99.90;;;;;;4951616;28;20230;-77
2022/01/06 17:06:27;;;;;;;15.40;6.00;;;1.70;99.90;;;;;;4951991;28;20206;-77
2022/01/06 17:08:53;;;;;;;11.33;6.30;;;1.70;99.90;;;;;;4953443;28;20435;-76
2022/01/06 17:11:18;;;;;;;11.70;5.30;;;1.60;99.90;;;;;;4950623;29;20270;-77
2022/01/06 17:13:44;;;;;;;13.90;8.20;;;1.60;99.90;;;;;;4952312;28;20330;-78
2022/01/06 17:16:11;;;;;;;25.90;7.40;;;1.50;99.90;;;;;;4953112;28;20252;-76
2022/01/06 17:18:36;;;;;;;10.10;6.50;;;1.50;99.90;;;;;;4952767;28;20236;-74
2022/01/06 17:21:02;;;;;;;10.83;5.77;;;1.40;99.90;;;;;;4952579;28;20497;-78
2022/01/06 17:23:27;;;;;;;9.10;4.83;;;1.40;99.90;;;;;;4951029;28;20231;-74
2022/01/06 17:25:53;;;;;;;11.80;3.80;;;1.30;99.90;;;;;;4952548;29;20209;-76
2022/01/06 17:28:19;;;;;;;7.70;3.70;;;1.30;99.90;;;;;;4952222;28;20217;-74
2022/01/06 17:30:49;;;;;;;10.20;3.37;;;1.20;99.90;;;;;;4952657;28;20273;-73
2022/01/06 17:33:15;;;;;;;6.30;2.93;;;1.10;99.90;;;;;;4951646;28;20217;-79
2022/01/06 17:35:40;;;;;;;13.07;3.90;;;1.10;99.90;;;;;;4952847;29;20997;-76
2022/01/06 17:38:06;;;;;;;12.27;4.30;;;1.10;99.90;;;;;;4952882;28;20690;-76
2022/01/06 17:40:32;;;;;;;5.27;3.90;;;1.00;99.90;;;;;;4952197;29;20233;-79